Time;durP1;ratioP1;P1;durP2;ratioP2;P2;SDS_P1;SDS_P2;PMS_P1;PMS_P2;Temp;Humidity;BMP_temperature;BMP_pressure;BME280_temperature;BME280_humidity;BME280_pressure;Samples;Min_cycle;Max_cycle;Signal;HPM_P1;HPM_P2
2022/04/01 00:00:05;;;;;;;1.27;1.17;;;2.10;99.90;;;;;;5073543;27;20205;-47
2022/04/01 00:02:32;;;;;;;3.20;1.40;;;2.10;99.90;;;;;;5081595;28;20779;-47
2022/04/01 00:04:59;;;;;;;1.30;1.20;;;2.10;99.90;;;;;;5086198;27;20583;-42
2022/04/01 00:07:27;;;;;;;2.43;1.20;;;2.10;99.90;;;;;;5094620;28;20282;-44
2022/04/01 00:09:54;;;;;;;1.13;1.00;;;2.10;99.90;;;;;;5066875;27;20207;-46
2022/04/01 00:12:20;;;;;;;2.73;1.43;;;2.10;99.90;;;;;;5101313;27;20443;-42
2022/04/01 00:14:47;;;;;;;2.33;1.33;;;2.10;99.90;;;;;;5074383;28;20253;-48
2022/04/01 00:17:14;;;;;;;1.20;1.10;;;2.10;99.90;;;;;;5098888;27;20577;-43
2022/04/01 00:19:41;;;;;;;1.43;1.10;;;2.10;99.90;;;;;;5082294;27;20321;-42
2022/04/01 00:22:08;;;;;;;1.20;1.10;;;2.10;99.90;;;;;;5082073;28;20327;-44
2022/04/01 00:24:36;;;;;;;4.60;1.30;;;2.10;99.90;;;;;;5082282;28;20233;-42
2022/04/01 00:27:04;;;;;;;1.57;1.30;;;2.10;99.90;;;;;;5092529;28;20204;-43
2022/04/01 00:29:31;;;;;;;1.10;1.00;;;2.10;99.90;;;;;;5095792;27;20305;-43
2022/04/01 00:32:00;;;;;;;1.73;1.23;;;2.10;99.90;;;;;;5080647;28;20293;-44
2022/04/01 00:34:27;;;;;;;2.33;1.30;;;2.10;99.90;;;;;;5102000;28;20265;-44
2022/04/01 00:36:55;;;;;;;3.03;1.30;;;2.10;99.90;;;;;;5079574;27;20214;-44
2022/04/01 00:39:24;;;;;;;2.90;1.30;;;2.10;99.90;;;;;;5076100;27;20320;-44
2022/04/01 00:41:53;;;;;;;1.63;1.10;;;2.10;99.90;;;;;;5100848;28;20670;-44
2022/04/01 00:44:22;;;;;;;1.73;1.10;;;2.10;99.90;;;;;;5091302;28;20223;-44
2022/04/01 00:46:51;;;;;;;2.53;1.30;;;2.20;99.90;;;;;;5083895;27;20403;-43
2022/04/01 00:49:19;;;;;;;1.87;1.20;;;2.20;99.90;;;;;;5083339;27;20605;-43
2022/04/01 00:51:48;;;;;;;1.03;0.97;;;2.20;99.90;;;;;;5089217;27;20227;-44
2022/04/01 00:54:16;;;;;;;1.20;1.00;;;2.20;99.90;;;;;;5081697;27;20228;-43
2022/04/01 00:56:44;;;;;;;4.93;0.90;;;2.20;99.90;;;;;;5082762;28;20212;-43
2022/04/01 00:59:12;;;;;;;2.17;0.80;;;2.20;99.90;;;;;;5092703;28;20900;-43
2022/04/01 01:01:41;;;;;;;1.40;0.93;;;2.20;99.90;;;;;;5078386;28;20211;-43
2022/04/01 01:04:09;;;;;;;2.37;1.27;;;2.30;99.90;;;;;;5092544;27;20725;-42
2022/04/01 01:06:40;;;;;;;3.53;1.10;;;2.30;99.90;;;;;;5082252;28;20208;-43
2022/04/01 01:09:07;;;;;;;1.37;1.00;;;2.30;99.90;;;;;;5085083;28;20214;-43
2022/04/01 01:11:35;;;;;;;0.70;0.70;;;2.30;99.90;;;;;;5065166;28;20230;-43
2022/04/01 01:14:03;;;;;;;1.80;0.90;;;2.30;99.90;;;;;;5078606;28;20266;-43
2022/04/01 01:16:31;;;;;;;0.70;0.70;;;2.30;99.90;;;;;;5075572;28;21108;-44
2022/04/01 01:19:03;;;;;;;1.27;0.70;;;2.30;99.90;;;;;;5084631;28;20478;-43
2022/04/01 01:21:31;;;;;;;2.30;1.13;;;2.30;99.90;;;;;;5085981;27;20287;-44
2022/04/01 01:24:03;;;;;;;0.80;0.80;;;2.20;99.90;;;;;;5093317;28;20233;-43
2022/04/01 01:26:32;;;;;;;1.10;0.70;;;2.20;99.90;;;;;;5072907;27;20333;-44
2022/04/01 01:29:00;;;;;;;1.30;0.60;;;2.30;99.90;;;;;;5089587;28;20204;-43
2022/04/01 01:31:27;;;;;;;1.87;0.90;;;2.20;99.90;;;;;;5081002;28;20219;-43
2022/04/01 01:33:56;;;;;;;0.63;0.53;;;2.20;99.90;;;;;;5082037;27;20238;-43
2022/04/01 01:36:23;;;;;;;1.07;0.80;;;2.20;99.90;;;;;;5081169;28;20204;-44
2022/04/01 01:38:50;;;;;;;2.27;1.00;;;2.20;99.90;;;;;;5085174;27;20205;-44
2022/04/01 01:41:17;;;;;;;1.67;0.97;;;2.20;99.90;;;;;;5073529;28;20253;-44
2022/04/01 01:43:46;;;;;;;2.43;0.90;;;2.10;99.90;;;;;;5095411;28;20251;-47
2022/04/01 01:46:13;;;;;;;2.10;0.93;;;2.10;99.90;;;;;;5079964;28;20252;-44
2022/04/01 01:48:40;;;;;;;0.93;0.70;;;2.00;99.90;;;;;;5085535;28;20208;-44
2022/04/01 01:56:37;;;;;;;3.20;1.23;;;2.20;99.90;;;;;;5074975;28;20299;-44
2022/04/01 01:59:05;;;;;;;0.83;0.70;;;2.10;99.90;;;;;;5089850;28;20210;-45
2022/04/01 02:01:32;;;;;;;1.23;0.90;;;2.20;99.90;;;;;;5078422;28;20218;-43
2022/04/01 02:04:01;;;;;;;1.80;1.13;;;2.10;99.90;;;;;;5078538;28;20227;-44
2022/04/01 02:06:28;;;;;;;1.57;0.90;;;2.20;99.90;;;;;;5096972;28;20206;-45
2022/04/01 02:08:55;;;;;;;1.30;0.90;;;2.20;99.90;;;;;;5089900;28;20299;-44
2022/04/01 02:11:23;;;;;;;1.20;0.83;;;2.10;99.90;;;;;;5084926;28;20654;-44
2022/04/01 02:13:50;;;;;;;3.77;1.10;;;2.10;99.90;;;;;;5090813;27;20234;-43
2022/04/01 02:16:21;;;;;;;1.47;0.80;;;2.10;99.90;;;;;;5098807;28;20203;-44
2022/04/01 02:18:49;;;;;;;1.53;0.80;;;2.10;99.90;;;;;;5075633;27;20208;-43
2022/04/01 02:21:16;;;;;;;1.83;1.33;;;2.20;99.90;;;;;;5091255;28;20211;-44
2022/04/01 02:23:45;;;;;;;1.73;0.90;;;2.20;99.90;;;;;;5084599;28;20215;-43
2022/04/01 02:26:13;;;;;;;1.63;0.80;;;2.10;99.90;;;;;;5091605;28;21495;-44
2022/04/01 02:28:41;;;;;;;1.27;0.90;;;2.10;99.90;;;;;;5074057;28;20215;-46
2022/04/01 02:31:09;;;;;;;1.10;0.87;;;2.20;99.90;;;;;;5094411;28;20615;-44
2022/04/01 02:33:37;;;;;;;2.97;1.00;;;2.20;99.90;;;;;;5075361;28;20235;-48
2022/04/01 02:36:09;;;;;;;1.27;0.60;;;2.10;99.90;;;;;;5085266;28;20201;-43
2022/04/01 02:38:36;;;;;;;3.23;1.03;;;2.10;99.90;;;;;;5082772;28;20212;-48
2022/04/01 02:44:25;;;;;;;2.13;0.90;;;2.20;99.90;;;;;;5088430;28;20492;-45
2022/04/01 02:46:52;;;;;;;2.30;0.80;;;2.20;99.90;;;;;;5096856;28;20414;-44
2022/04/01 02:49:20;;;;;;;1.43;1.00;;;2.20;99.90;;;;;;5071694;27;20919;-47
2022/04/01 02:51:49;;;;;;;0.70;0.70;;;2.20;99.90;;;;;;5099369;27;20294;-46
2022/04/01 02:54:16;;;;;;;0.50;0.50;;;2.20;99.90;;;;;;5081216;27;20222;-47
2022/04/01 02:56:43;;;;;;;0.70;0.70;;;2.20;99.90;;;;;;5097027;27;20212;-43
2022/04/01 02:59:11;;;;;;;3.60;1.00;;;2.20;99.90;;;;;;5077103;27;20214;-48
2022/04/01 03:01:40;;;;;;;2.07;0.73;;;2.20;99.90;;;;;;5097848;28;20197;-48
2022/04/01 03:04:09;;;;;;;2.50;0.90;;;2.20;99.90;;;;;;5074277;28;20228;-49
2022/04/01 03:06:38;;;;;;;10.90;1.30;;;2.10;99.90;;;;;;5100958;27;20568;-46
2022/04/01 03:09:05;;;;;;;2.20;0.90;;;2.20;99.90;;;;;;5087419;27;20284;-49
2022/04/01 03:11:32;;;;;;;2.27;0.90;;;2.20;99.90;;;;;;5095524;27;20194;-44
2022/04/01 03:13:59;;;;;;;1.13;0.73;;;2.20;99.90;;;;;;5078836;28;20323;-48
2022/04/01 03:16:26;;;;;;;0.70;0.70;;;2.20;99.90;;;;;;5093698;28;20274;-45
2022/04/01 03:18:57;;;;;;;1.73;0.80;;;2.20;99.90;;;;;;5085202;28;20294;-44
2022/04/01 03:21:24;;;;;;;1.60;0.80;;;2.20;99.90;;;;;;5086153;28;20199;-43
2022/04/01 03:23:53;;;;;;;2.83;1.00;;;2.20;99.90;;;;;;5096661;28;20223;-43
2022/04/01 03:26:21;;;;;;;2.27;1.20;;;2.10;99.90;;;;;;5086294;28;20191;-48
2022/04/01 03:28:48;;;;;;;0.67;0.67;;;2.20;99.90;;;;;;5074532;27;20211;-44
2022/04/01 03:31:15;;;;;;;0.90;0.70;;;2.20;99.90;;;;;;5085872;28;20485;-43
2022/04/01 03:33:42;;;;;;;1.87;0.93;;;2.20;99.90;;;;;;5080429;28;20738;-43
2022/04/01 03:36:09;;;;;;;1.33;1.00;;;2.20;99.90;;;;;;5085758;28;20581;-43
2022/04/01 03:38:36;;;;;;;2.50;0.90;;;2.20;99.90;;;;;;5093729;28;20218;-43
2022/04/01 03:41:06;;;;;;;3.13;0.90;;;2.20;99.90;;;;;;5081739;28;20211;-42
2022/04/01 03:43:34;;;;;;;0.60;0.60;;;2.20;99.90;;;;;;5091864;28;20227;-42
2022/04/01 03:46:08;;;;;;;1.37;0.80;;;2.20;99.90;;;;;;5061051;28;20309;-44
2022/04/01 03:48:42;;;;;;;3.70;1.00;;;2.20;99.90;;;;;;5091154;28;20981;-43
2022/04/01 03:51:10;;;;;;;1.13;0.90;;;2.20;99.90;;;;;;5062076;28;20216;-44
2022/04/01 03:53:42;;;;;;;2.20;0.87;;;2.20;99.90;;;;;;5075956;27;20227;-43
2022/04/01 03:56:12;;;;;;;2.20;1.00;;;2.20;99.90;;;;;;5082604;28;20208;-45
2022/04/01 03:58:47;;;;;;;0.97;0.70;;;2.20;99.90;;;;;;5082253;28;20233;-43
2022/04/01 04:01:14;;;;;;;2.23;0.90;;;2.20;99.90;;;;;;5061750;28;20217;-43
2022/04/01 04:03:42;;;;;;;3.10;1.00;;;2.20;99.90;;;;;;5094680;28;20289;-44
2022/04/01 04:06:10;;;;;;;0.50;0.50;;;2.20;99.90;;;;;;5066903;28;20306;-44
2022/04/01 04:08:38;;;;;;;4.00;0.83;;;2.20;99.90;;;;;;5087705;28;20207;-43
2022/04/01 04:11:05;;;;;;;1.93;0.70;;;2.30;99.90;;;;;;5077817;27;20200;-45
2022/04/01 04:13:34;;;;;;;1.20;0.77;;;2.20;99.90;;;;;;5078260;28;20923;-44
2022/04/01 04:16:09;;;;;;;1.00;0.90;;;2.30;99.90;;;;;;5075886;28;20248;-45
2022/04/01 04:18:42;;;;;;;1.57;1.03;;;2.30;99.90;;;;;;5092708;28;20839;-44
2022/04/01 04:21:17;;;;;;;1.20;0.70;;;2.30;99.90;;;;;;5083541;28;20231;-48
2022/04/01 04:23:48;;;;;;;2.70;0.90;;;2.20;99.90;;;;;;5082462;28;20224;-48
2022/04/01 04:26:22;;;;;;;0.70;0.70;;;2.20;99.90;;;;;;5082326;28;20850;-47
2022/04/01 04:28:56;;;;;;;1.13;0.90;;;2.20;99.90;;;;;;5083107;28;20474;-43
2022/04/01 04:31:26;;;;;;;3.53;1.07;;;2.20;99.90;;;;;;5061945;28;20244;-41
2022/04/01 04:33:56;;;;;;;1.37;0.80;;;2.20;99.90;;;;;;5056878;28;1081737;-41
2022/04/01 04:36:30;;;;;;;2.47;0.90;;;2.20;99.90;;;;;;5070287;28;20516;-46
2022/04/01 04:38:57;;;;;;;2.03;0.97;;;2.20;99.90;;;;;;5078327;27;20212;-46
2022/04/01 04:41:25;;;;;;;4.23;1.00;;;2.20;99.90;;;;;;5084080;27;22422;-44
2022/04/01 04:43:54;;;;;;;5.00;0.97;;;2.20;99.90;;;;;;5079131;28;20434;-47
2022/04/01 04:46:21;;;;;;;1.50;0.87;;;2.20;99.90;;;;;;5065118;27;20432;-43
2022/04/01 04:48:50;;;;;;;3.50;0.90;;;2.20;99.90;;;;;;5095508;27;20203;-44
2022/04/01 04:51:23;;;;;;;1.30;1.00;;;2.20;99.90;;;;;;5080278;28;20204;-45
2022/04/01 04:53:51;;;;;;;1.90;0.93;;;2.20;99.90;;;;;;5072095;27;20389;-44
2022/04/01 04:56:20;;;;;;;2.77;0.93;;;2.20;99.90;;;;;;5092526;28;20203;-44
2022/04/01 04:58:47;;;;;;;5.13;1.40;;;2.20;99.90;;;;;;5067334;27;20233;-44
2022/04/01 05:01:35;;;;;;;1.17;0.70;;;2.20;99.90;;;;;;5065585;27;20237;-44
2022/04/01 05:04:28;;;;;;;1.23;0.80;;;2.20;99.90;;;;;;5090524;27;20418;-44
2022/04/01 05:07:07;;;;;;;2.50;0.80;;;2.20;99.90;;;;;;5095446;28;20242;-45
2022/04/01 05:09:40;;;;;;;1.07;0.70;;;2.20;99.90;;;;;;5078375;28;20256;-45
2022/04/01 05:12:25;;;;;;;2.10;1.00;;;2.20;99.90;;;;;;5093142;27;20203;-44
2022/04/01 05:15:08;;;;;;;2.23;0.83;;;2.20;99.90;;;;;;5074911;27;20292;-44
2022/04/01 05:17:38;;;;;;;2.60;1.00;;;2.20;99.90;;;;;;5064336;27;20208;-45
2022/04/01 05:20:15;;;;;;;1.27;0.73;;;2.20;99.90;;;;;;5084915;28;20298;-44
2022/04/01 05:22:49;;;;;;;4.93;1.10;;;2.20;99.90;;;;;;5081612;28;20253;-45
2022/04/01 05:25:20;;;;;;;2.37;1.27;;;2.20;99.90;;;;;;5073394;28;20524;-45
2022/04/01 05:27:50;;;;;;;3.73;1.27;;;2.20;99.90;;;;;;5080044;28;20667;-45
2022/04/01 05:30:18;;;;;;;4.30;1.00;;;2.20;99.90;;;;;;5082624;28;20408;-45
2022/04/01 05:33:01;;;;;;;1.90;0.90;;;2.20;99.90;;;;;;5050368;28;20369;-45
2022/04/01 05:35:32;;;;;;;0.87;0.80;;;2.20;99.90;;;;;;5054067;28;20215;-46
2022/04/01 05:38:01;;;;;;;3.53;0.90;;;2.20;99.90;;;;;;5087236;28;20310;-44
2022/04/01 05:40:29;;;;;;;5.47;1.43;;;2.30;99.90;;;;;;5080829;28;20207;-43
2022/04/01 05:42:57;;;;;;;2.10;0.90;;;2.30;99.90;;;;;;5091797;27;20207;-43
2022/04/01 05:45:27;;;;;;;3.70;1.53;;;2.60;99.90;;;;;;5096189;27;20421;-45
2022/04/01 05:47:54;;;;;;;3.97;1.40;;;2.50;99.90;;;;;;5079137;27;20290;-43
2022/04/01 05:50:23;;;;;;;19.63;1.77;;;2.50;99.90;;;;;;5070718;28;20312;-43
2022/04/01 05:52:52;;;;;;;2.87;0.90;;;2.60;99.90;;;;;;5085992;27;20410;-43
2022/04/01 05:55:23;;;;;;;1.10;1.00;;;2.60;99.90;;;;;;5081016;28;20573;-43
2022/04/01 05:57:50;;;;;;;1.13;0.90;;;2.50;99.90;;;;;;5091679;28;20200;-43
2022/04/01 06:00:18;;;;;;;6.00;1.10;;;2.50;99.90;;;;;;5095264;28;20292;-44
2022/04/01 06:03:19;;;;;;;2.80;0.90;;;2.40;99.90;;;;;;5091071;28;20199;-42
2022/04/01 06:05:54;;;;;;;2.03;1.10;;;2.40;99.90;;;;;;5074500;28;20214;-46
2022/04/01 06:08:33;;;;;;;1.23;0.93;;;2.40;99.90;;;;;;5100463;28;20276;-42
2022/04/01 06:11:07;;;;;;;2.00;1.03;;;2.40;99.90;;;;;;5081345;27;20416;-42
2022/04/01 06:13:43;;;;;;;1.37;1.20;;;2.30;99.90;;;;;;5095269;28;20296;-41
2022/04/01 06:16:20;;;;;;;2.33;1.10;;;2.40;99.90;;;;;;5094209;28;20437;-46
2022/04/01 06:18:54;;;;;;;1.47;1.10;;;2.40;99.90;;;;;;5086766;28;20415;-47
2022/04/01 06:21:25;;;;;;;1.37;0.97;;;2.40;99.90;;;;;;5102269;28;20235;-45
2022/04/01 06:24:10;;;;;;;3.10;1.70;;;2.50;99.90;;;;;;5095956;28;20230;-48
2022/04/01 06:26:41;;;;;;;2.40;1.40;;;2.40;99.90;;;;;;5079240;28;20208;-46
2022/04/01 06:29:34;;;;;;;1.83;1.20;;;2.50;99.90;;;;;;5093039;28;20202;-44
2022/04/01 06:32:05;;;;;;;2.50;1.03;;;2.50;99.90;;;;;;5089237;28;20540;-47
2022/04/01 06:34:51;;;;;;;1.23;0.90;;;2.50;99.90;;;;;;5095444;28;20433;-44
2022/04/01 06:37:23;;;;;;;2.00;1.20;;;2.50;99.90;;;;;;5096680;28;20206;-43
2022/04/01 06:39:58;;;;;;;2.73;1.20;;;2.50;99.90;;;;;;5089932;28;20241;-48
2022/04/01 06:42:28;;;;;;;2.53;1.17;;;2.50;99.90;;;;;;5096653;28;20271;-41
2022/04/01 06:44:55;;;;;;;2.17;1.30;;;2.50;99.90;;;;;;5092168;28;20468;-43
2022/04/01 06:47:21;;;;;;;4.43;1.30;;;2.50;99.90;;;;;;5098910;28;20275;-47
2022/04/01 06:49:48;;;;;;;1.87;1.30;;;2.60;99.90;;;;;;5095031;28;20552;-47
2022/04/01 06:52:16;;;;;;;3.77;1.40;;;2.50;99.90;;;;;;5081373;28;20550;-45
2022/04/01 06:54:46;;;;;;;5.27;1.50;;;2.50;99.90;;;;;;5093599;28;20233;-48
2022/04/01 06:57:14;;;;;;;4.07;1.30;;;2.60;99.90;;;;;;5089407;28;20284;-43
2022/04/01 06:59:41;;;;;;;4.13;1.20;;;2.60;99.90;;;;;;5097289;28;20263;-46
2022/04/01 07:02:08;;;;;;;3.53;1.30;;;2.60;99.90;;;;;;5097935;28;20478;-44
2022/04/01 07:04:34;;;;;;;2.33;1.20;;;2.60;99.90;;;;;;5098836;28;20257;-44
2022/04/01 07:07:01;;;;;;;1.20;1.10;;;2.80;99.90;;;;;;5077312;28;20650;-45
2022/04/01 07:09:28;;;;;;;2.47;1.37;;;2.60;99.90;;;;;;5100980;28;20190;-44
2022/04/01 07:11:58;;;;;;;2.90;1.30;;;2.60;99.90;;;;;;5081980;28;20432;-44
2022/04/01 07:14:27;;;;;;;1.37;1.20;;;2.60;99.90;;;;;;5095090;28;20228;-44
2022/04/01 07:16:54;;;;;;;5.97;1.47;;;2.70;99.90;;;;;;5093722;28;20474;-45
2022/04/01 07:19:21;;;;;;;7.00;1.40;;;2.70;99.90;;;;;;5095701;28;20204;-44
2022/04/01 07:21:48;;;;;;;3.63;1.50;;;2.70;99.90;;;;;;5091908;28;20215;-47
2022/04/01 07:24:15;;;;;;;2.60;1.40;;;2.80;99.90;;;;;;5080157;28;20298;-45
2022/04/01 07:26:44;;;;;;;4.33;1.57;;;2.80;99.90;;;;;;5082367;28;20276;-48
2022/04/01 07:29:13;;;;;;;5.27;1.13;;;2.80;99.90;;;;;;5102281;27;20279;-46
2022/04/01 07:34:32;;;;;;;3.07;1.33;;;2.90;99.90;;;;;;5104513;28;20236;-44
2022/04/01 07:36:59;;;;;;;5.97;1.57;;;2.90;99.90;;;;;;5100442;28;20413;-44
2022/04/01 07:39:25;;;;;;;2.80;1.30;;;2.90;99.90;;;;;;5085933;27;20500;-42
2022/04/01 07:41:52;;;;;;;3.33;1.70;;;2.90;99.90;;;;;;5085259;27;20278;-48
2022/04/01 07:44:22;;;;;;;2.83;1.50;;;2.90;99.90;;;;;;5096201;28;20224;-43
2022/04/01 07:46:48;;;;;;;2.70;1.50;;;2.90;99.90;;;;;;5099530;28;20547;-47
2022/04/01 07:49:15;;;;;;;4.83;1.43;;;2.90;99.90;;;;;;5100898;28;20272;-45
2022/04/01 07:51:43;;;;;;;2.37;1.47;;;3.00;99.90;;;;;;5097036;28;20206;-47
2022/04/01 07:54:11;;;;;;;1.80;1.33;;;3.00;99.90;;;;;;5082846;27;20234;-42
2022/04/01 07:56:40;;;;;;;3.33;1.50;;;3.00;99.90;;;;;;5100133;28;20208;-46
2022/04/01 07:59:07;;;;;;;6.60;1.70;;;3.00;99.90;;;;;;5082210;28;20526;-44
2022/04/01 08:01:36;;;;;;;2.33;1.53;;;3.00;99.90;;;;;;5102120;27;20245;-44
2022/04/01 08:04:03;;;;;;;5.33;1.80;;;3.00;99.90;;;;;;5095164;28;20367;-44
2022/04/01 08:06:30;;;;;;;2.53;1.40;;;3.00;99.90;;;;;;5098736;27;20331;-44
2022/04/01 08:08:58;;;;;;;1.30;1.20;;;3.00;99.90;;;;;;5096038;28;20382;-44
2022/04/01 08:11:25;;;;;;;2.63;1.50;;;3.10;99.90;;;;;;5087618;27;20286;-42
2022/04/01 08:13:52;;;;;;;1.80;1.47;;;3.10;99.90;;;;;;5085282;27;20433;-47
2022/04/01 08:16:19;;;;;;;4.37;2.33;;;3.00;99.90;;;;;;5094265;27;20479;-43
2022/04/01 08:18:48;;;;;;;3.90;1.73;;;3.00;99.90;;;;;;5098914;28;20296;-47
2022/04/01 08:21:15;;;;;;;2.10;1.67;;;3.10;99.90;;;;;;5104661;28;20381;-44
2022/04/01 08:23:43;;;;;;;4.10;1.57;;;3.10;99.90;;;;;;5098093;28;20265;-47
2022/04/01 08:26:11;;;;;;;4.87;1.70;;;3.10;99.90;;;;;;5080208;28;20209;-42
2022/04/01 08:28:38;;;;;;;2.97;1.37;;;3.10;99.90;;;;;;5095013;27;20237;-49
2022/04/01 08:31:07;;;;;;;1.60;1.50;;;3.10;99.90;;;;;;5086643;27;20206;-44
2022/04/01 08:33:34;;;;;;;1.77;1.33;;;3.20;99.90;;;;;;5094264;27;20222;-45
2022/04/01 08:36:02;;;;;;;5.90;1.40;;;3.20;99.90;;;;;;5096821;28;20333;-44
2022/04/01 08:38:30;;;;;;;2.37;1.50;;;3.20;99.90;;;;;;5095625;28;20269;-44
2022/04/01 08:40:57;;;;;;;1.90;1.50;;;3.20;99.90;;;;;;5081576;27;20531;-44
2022/04/01 08:43:25;;;;;;;5.97;1.43;;;3.20;99.90;;;;;;5107136;27;20227;-44
2022/04/01 08:45:52;;;;;;;8.13;1.70;;;3.30;99.90;;;;;;5082666;28;20216;-47
2022/04/01 08:48:19;;;;;;;2.50;1.83;;;3.30;99.90;;;;;;5096398;28;20410;-44
2022/04/01 08:50:46;;;;;;;1.70;1.47;;;3.30;99.90;;;;;;5101703;27;20345;-44
2022/04/01 08:53:14;;;;;;;2.33;1.63;;;3.30;99.90;;;;;;5088858;28;20230;-44
2022/04/01 08:55:46;;;;;;;2.87;1.80;;;3.40;99.90;;;;;;5084761;28;20401;-44
2022/04/01 08:58:16;;;;;;;1.80;1.40;;;3.40;99.90;;;;;;5094746;28;20210;-44
2022/04/01 09:00:43;;;;;;;2.77;1.60;;;3.40;99.90;;;;;;5085720;28;20505;-43
2022/04/01 09:03:12;;;;;;;3.67;1.77;;;3.40;99.90;;;;;;5096908;28;20652;-46
2022/04/01 09:05:43;;;;;;;3.60;2.20;;;3.40;99.90;;;;;;5096161;28;20194;-44
2022/04/01 09:08:10;;;;;;;6.17;1.97;;;3.40;99.90;;;;;;5097949;27;20198;-43
2022/04/01 09:10:54;;;;;;;4.47;1.97;;;3.40;99.90;;;;;;5096167;27;20402;-47
2022/04/01 09:13:22;;;;;;;4.00;1.70;;;3.50;99.90;;;;;;5083839;28;20303;-47
2022/04/01 09:15:50;;;;;;;4.60;2.13;;;3.40;99.90;;;;;;5099071;27;20205;-44
2022/04/01 09:18:49;;;;;;;3.60;1.60;;;3.60;99.90;;;;;;5085061;27;20404;-46
2022/04/01 09:21:16;;;;;;;2.53;1.67;;;3.60;99.90;;;;;;5091696;28;20208;-47
2022/04/01 09:23:47;;;;;;;3.10;1.67;;;3.70;99.90;;;;;;5099133;28;20284;-42
2022/04/01 09:26:20;;;;;;;1.63;1.40;;;3.70;99.90;;;;;;5097140;28;20229;-46
2022/04/01 09:28:46;;;;;;;3.00;1.80;;;3.70;99.90;;;;;;5084810;28;20205;-43
2022/04/01 09:31:15;;;;;;;4.00;2.10;;;3.70;99.90;;;;;;5079218;28;20403;-47
2022/04/01 09:33:50;;;;;;;2.83;1.90;;;3.80;99.90;;;;;;5087456;27;20236;-44
2022/04/01 09:36:19;;;;;;;4.30;1.90;;;3.80;99.90;;;;;;5086077;27;20212;-44
2022/04/01 09:38:58;;;;;;;5.17;1.60;;;3.70;99.90;;;;;;5094860;28;20198;-45
2022/04/01 09:41:38;;;;;;;3.80;1.80;;;3.70;99.90;;;;;;5095125;28;20487;-44
2022/04/01 09:44:09;;;;;;;3.60;2.50;;;3.70;99.90;;;;;;5077980;28;20219;-45
2022/04/01 09:46:40;;;;;;;2.97;1.83;;;3.70;99.90;;;;;;5082338;28;20204;-44
2022/04/01 09:49:08;;;;;;;3.30;1.90;;;3.70;99.90;;;;;;5085934;27;20281;-46
2022/04/01 09:51:35;;;;;;;1.87;1.50;;;3.80;99.90;;;;;;5100198;28;20466;-41
2022/04/01 09:54:04;;;;;;;5.30;1.90;;;3.80;99.90;;;;;;5101468;28;20301;-43
2022/04/01 09:56:44;;;;;;;4.70;2.30;;;3.80;99.90;;;;;;5101008;28;20219;-45
2022/04/01 09:59:12;;;;;;;1.93;1.70;;;3.80;99.90;;;;;;5083279;28;20212;-48
2022/04/01 10:01:40;;;;;;;3.80;1.77;;;3.80;99.90;;;;;;5101573;28;20236;-43
2022/04/01 10:04:08;;;;;;;4.90;1.97;;;3.80;99.90;;;;;;5090749;28;20564;-47
2022/04/01 10:06:37;;;;;;;1.50;1.40;;;3.80;99.90;;;;;;5101483;28;20229;-42
2022/04/01 10:09:07;;;;;;;4.83;1.73;;;3.90;99.90;;;;;;5104154;28;20247;-43
2022/04/01 10:11:36;;;;;;;6.97;2.23;;;3.90;99.90;;;;;;5100754;28;20518;-41
2022/04/01 10:14:09;;;;;;;2.13;1.87;;;3.90;99.90;;;;;;5099705;28;20238;-41
2022/04/01 10:16:36;;;;;;;4.07;2.37;;;4.00;99.90;;;;;;5095179;27;20492;-45
2022/04/01 10:19:08;;;;;;;3.13;1.93;;;4.00;99.90;;;;;;5060361;28;22115;-48
2022/04/01 10:21:36;;;;;;;1.83;1.67;;;4.00;99.90;;;;;;5087235;28;20604;-44
2022/04/01 10:24:09;;;;;;;3.30;2.10;;;4.00;99.90;;;;;;5084026;28;20333;-43
2022/04/01 10:26:43;;;;;;;4.73;1.93;;;4.10;99.90;;;;;;5082791;28;20527;-45
2022/04/01 10:29:12;;;;;;;5.77;1.80;;;4.10;99.90;;;;;;5098645;28;20249;-44
2022/04/01 10:31:41;;;;;;;3.73;2.00;;;4.10;99.90;;;;;;5079088;28;20208;-44
2022/04/01 10:34:24;;;;;;;1.83;1.60;;;4.20;99.90;;;;;;5078152;28;20231;-43
2022/04/01 10:36:57;;;;;;;2.67;1.90;;;4.10;99.90;;;;;;5091385;28;20196;-43
2022/04/01 10:39:25;;;;;;;3.40;2.00;;;4.10;99.90;;;;;;5091661;28;20521;-44
2022/04/01 10:42:11;;;;;;;2.50;1.57;;;4.10;99.90;;;;;;5079622;28;20526;-45
2022/04/01 10:44:52;;;;;;;2.27;1.70;;;4.10;99.90;;;;;;5098312;28;20447;-45
2022/04/01 10:47:21;;;;;;;3.63;2.30;;;4.20;99.90;;;;;;5089895;28;20217;-44
2022/04/01 10:52:31;;;;;;;3.67;2.00;;;4.20;99.90;;;;;;5101152;28;20393;-44
2022/04/01 10:55:27;;;;;;;4.30;2.37;;;4.30;99.90;;;;;;5088323;28;20229;-43
2022/04/01 10:58:08;;;;;;;3.83;1.93;;;4.20;99.90;;;;;;5074210;28;20398;-44
2022/04/01 11:00:36;;;;;;;3.10;1.80;;;4.30;99.90;;;;;;5078248;28;20226;-41
2022/04/01 11:03:23;;;;;;;4.57;1.90;;;4.20;99.90;;;;;;5103474;27;20806;-44
2022/04/01 11:05:50;;;;;;;4.30;1.80;;;4.30;99.90;;;;;;5085796;27;20287;-48
2022/04/01 11:08:21;;;;;;;3.67;1.83;;;4.30;99.90;;;;;;5101904;27;20222;-45
2022/04/01 11:11:08;;;;;;;3.97;2.20;;;4.20;99.90;;;;;;5097457;27;20329;-46
2022/04/01 11:13:36;;;;;;;2.50;1.80;;;4.10;99.90;;;;;;5089034;28;20239;-41
2022/04/01 11:16:20;;;;;;;3.10;1.60;;;4.20;99.90;;;;;;5083919;27;21122;-44
2022/04/01 11:19:14;;;;;;;3.00;1.70;;;4.30;99.90;;;;;;5094109;28;20213;-44
2022/04/01 11:21:42;;;;;;;6.47;1.87;;;4.30;99.90;;;;;;5099644;27;20207;-45
2022/04/01 11:24:41;;;;;;;2.97;2.00;;;4.40;99.90;;;;;;5103355;28;20312;-44
2022/04/01 11:27:22;;;;;;;2.73;1.87;;;4.30;99.90;;;;;;5038504;28;20664;-45
2022/04/01 11:30:06;;;;;;;5.20;2.30;;;4.40;99.90;;;;;;5076265;28;20210;-45
2022/04/01 11:32:35;;;;;;;2.97;1.83;;;4.40;99.90;;;;;;5078518;28;20432;-44
2022/04/01 11:35:03;;;;;;;3.40;1.83;;;4.40;99.90;;;;;;5077315;27;20235;-44
2022/04/01 11:37:30;;;;;;;4.27;2.47;;;4.50;99.90;;;;;;5089641;27;20202;-43
2022/04/01 11:40:07;;;;;;;4.67;2.77;;;4.40;99.90;;;;;;5097937;27;20274;-45
2022/04/01 11:42:34;;;;;;;5.83;4.33;;;4.40;99.90;;;;;;5094277;27;20222;-43
2022/04/01 11:45:01;;;;;;;13.63;9.50;;;4.40;99.90;;;;;;5089218;27;20324;-44
2022/04/01 11:47:34;;;;;;;9.87;2.53;;;4.50;99.90;;;;;;5088065;27;20744;-44
2022/04/01 11:50:13;;;;;;;2.83;1.87;;;4.40;99.90;;;;;;5101508;27;20210;-45
2022/04/01 11:52:41;;;;;;;2.40;2.00;;;4.40;99.90;;;;;;5091149;27;20303;-48
2022/04/01 11:55:13;;;;;;;3.87;2.10;;;4.40;99.90;;;;;;5085709;27;20339;-44
2022/04/01 11:57:40;;;;;;;5.30;1.90;;;4.40;99.90;;;;;;5069402;27;20214;-47
2022/04/01 12:00:11;;;;;;;2.93;2.00;;;4.50;99.90;;;;;;5091378;27;20629;-45
2022/04/01 12:02:38;;;;;;;2.63;1.90;;;4.50;99.90;;;;;;5086055;27;20517;-42
2022/04/01 12:05:06;;;;;;;5.17;1.70;;;4.50;99.90;;;;;;5061334;27;21346;-47
2022/04/01 12:10:19;;;;;;;3.13;2.13;;;4.50;99.90;;;;;;5089045;27;20634;-43
2022/04/01 12:12:53;;;;;;;5.33;1.77;;;4.50;99.90;;;;;;5084226;27;20218;-48
2022/04/01 12:15:30;;;;;;;5.80;2.47;;;4.60;99.90;;;;;;5081036;27;20247;-46
2022/04/01 12:17:57;;;;;;;3.80;2.17;;;4.50;99.90;;;;;;5079496;28;20421;-48
2022/04/01 12:20:26;;;;;;;3.40;1.80;;;4.50;99.90;;;;;;5072755;27;20817;-46
2022/04/01 12:22:55;;;;;;;2.47;2.10;;;4.50;99.90;;;;;;5076514;27;20427;-48
2022/04/01 12:25:22;;;;;;;2.60;1.93;;;4.50;99.90;;;;;;5086999;27;20313;-47
2022/04/01 12:27:57;;;;;;;5.40;2.23;;;4.50;99.90;;;;;;5083224;27;20215;-45
2022/04/01 12:30:29;;;;;;;2.37;1.90;;;4.60;99.90;;;;;;5080484;28;20486;-44
2022/04/01 12:32:56;;;;;;;3.90;1.73;;;4.60;99.90;;;;;;5075104;27;20695;-46
2022/04/01 12:35:23;;;;;;;3.00;1.93;;;4.60;99.90;;;;;;5075593;27;20398;-42
2022/04/01 12:38:04;;;;;;;7.57;2.40;;;4.60;99.90;;;;;;5078130;27;20214;-47
2022/04/01 12:40:35;;;;;;;4.43;2.00;;;4.70;99.90;;;;;;5085861;27;20201;-48
2022/04/01 12:43:02;;;;;;;4.67;2.30;;;4.70;99.90;;;;;;5071098;27;20214;-44
2022/04/01 12:45:29;;;;;;;4.07;2.13;;;4.70;99.90;;;;;;5091202;27;20487;-44
2022/04/01 12:47:56;;;;;;;4.07;2.00;;;4.60;99.90;;;;;;5068818;27;20210;-45
2022/04/01 12:50:34;;;;;;;3.37;1.87;;;4.70;99.90;;;;;;5054241;27;20581;-45
2022/04/01 12:53:12;;;;;;;2.83;1.73;;;4.70;99.90;;;;;;5065149;28;20209;-44
2022/04/01 12:55:39;;;;;;;5.37;3.13;;;4.70;99.90;;;;;;5092122;27;21070;-44
2022/04/01 12:58:12;;;;;;;5.27;2.40;;;4.80;99.90;;;;;;5081645;27;20505;-44
2022/04/01 13:00:39;;;;;;;4.87;2.47;;;4.70;99.90;;;;;;5097694;27;20206;-44
2022/04/01 13:03:08;;;;;;;3.07;2.47;;;4.70;99.90;;;;;;5082197;27;20235;-44
2022/04/01 13:05:35;;;;;;;2.40;1.93;;;4.80;99.90;;;;;;5091928;27;20250;-44
2022/04/01 13:08:02;;;;;;;3.13;1.90;;;4.80;99.90;;;;;;5072736;27;20242;-43
2022/04/01 13:10:30;;;;;;;1.90;1.70;;;4.80;99.90;;;;;;5085845;27;20500;-45
2022/04/01 13:12:57;;;;;;;1.87;1.43;;;4.80;99.90;;;;;;5085733;27;20218;-43
2022/04/01 13:15:27;;;;;;;2.00;1.67;;;4.80;99.90;;;;;;5087773;27;20227;-44
2022/04/01 13:17:55;;;;;;;2.50;1.97;;;4.80;99.90;;;;;;5077587;27;20292;-42
2022/04/01 13:20:23;;;;;;;3.60;2.00;;;4.80;99.90;;;;;;5084145;27;20925;-44
2022/04/01 13:22:50;;;;;;;3.07;2.30;;;4.80;99.90;;;;;;5070324;27;20210;-43
2022/04/01 13:25:18;;;;;;;2.77;1.60;;;4.80;99.90;;;;;;5055747;28;20205;-43
2022/04/01 13:27:48;;;;;;;2.63;1.73;;;4.80;99.90;;;;;;5075657;27;20230;-43
2022/04/01 13:30:16;;;;;;;2.40;1.60;;;4.80;99.90;;;;;;5080577;27;20406;-44